首页
METAR-TAF:

METAR-TAF

机场 :

萨尔布吕肯机场

萨尔布吕肯, 德国

纬度: 49-13N, 经度: 007-07E, 海拔: 322米

当前天气观测

该预报发布于17分钟前的03:20 UTC
风速4节,风向
温度 17°C
湿度 82%
气压 1011 hPa
能见度10公里或以上
少量云层高于4500英尺

METAR: EDDR 190320Z 08004KT 9999 FEW045 17/14 Q1011

时间: 05:37 (03:37 UTC)

预报

该预报发布于4小时和37分钟前的23:00 UTC
预报有效从19日的 00点(UTC)到 19日的 24点(UTC)
风速3节,风向多变
能见度10公里或以上
1500米以下无云,无积雨云
成为
从 19日的 07点(UTC)到 19日的 09点(UTC)
风速5节,风向南转西南
成为
从 19日的 10点(UTC)到 19日的 12点(UTC)
风速10节,风向西南
几率 40% :
短暂存在
从 19日的 16点(UTC)到 19日的 24点(UTC)
风速15节,风向西南,有时为25节阵风
能見度: 4000
多云层高于3000英尺, 积雨云.
雷暴, 雨
成为
从 19日的 18点(UTC)到 19日的 20点(UTC)
风速5节,风向西南

TAF: EDDR 182300Z 1900/1924 VRB03KT CAVOK BECMG 1907/1909 20005KT BECMG 1910/1912 22010KT PROB40 TEMPO 1916/1924 22015G25KT 4000 TSRA BKN030CB BECMG 1918/1920 22005KT

超过4000个机场的气象观测和天气预报(METAR&TAF报告)。

可查询的气象台以黄色和红色小点在地图上表示。

将鼠标移到小点上方,可查看气象台名称。

然后点击查看天气观测和预报。

如需切换地图:点击带黑十字的绿色按钮放大地图;点击带横线的绿色按钮缩小地图;或者点击绿色箭头查看邻近地区的地图。


METAR-TAF: